Startpagina
METAR-TAF:

METAR-TAF

Vliegvelden :

Kake, Alaska, Verenigde Staten

breedte: 56-57N, lengte: 133-54W, hoogte: 52 m

Actueel weer

Dit bericht is 47 minuten geleden gemaakt, om 17:56 UTC
Wind 7 kt uit het noordnoordwesten, variërend tussen het westnoordwesten en het noordnoordoosten
Temperatuur 6°C
Vochtigheid 52%
Druk 1031 hPa
Zicht: 16.1 km
Onbewolkt

METAR: PAFE 101756Z AUTO 34007KT 300V020 10SM CLR 06/M03 A3045 RMK AO2 SLP324 T00561033 10056 21028 51012 $

Tijdstip: 10:43 (18:43 UTC)


TAF: ontbreekt

Waarnemingen en weersverwachtingen van meer dan 4000 vliegvelden (METAR en TAF).

De beschikbare stations zijn de gele en rode punten op de kaart.

Ga met uw muis naar het station om de naam te zien.

Klik dan om waarnemingen en weersverwachtingen te zien.

kaart wijzigen: klik op de groene knoppen met een zwart kruis om in te zoomen, op de groene knop met een streepje om uit te zoomen of op de groene pijlen voor aangrenzende kaarten.


METAR-TAF: